Time;durP1;ratioP1;P1;durP2;ratioP2;P2;SDS_P1;SDS_P2;PMS_P1;PMS_P2;Temp;Humidity;BMP_temperature;BMP_pressure;BME280_temperature;BME280_humidity;BME280_pressure;Samples;Min_cycle;Max_cycle;Signal;HPM_P1;HPM_P2
2023/08/28 00:00:18;;;;;;;16.60;11.52;;;;;;;31.87;42.29;98979.03;4466719;32;34565;-78
2023/08/28 00:02:45;;;;;;;15.18;11.52;;;;;;;32.19;41.53;98986.22;4466646;32;33629;-78
2023/08/28 00:05:13;;;;;;;13.60;11.40;;;;;;;31.54;43.01;98981.72;4467127;32;34034;-78
2023/08/28 00:07:40;;;;;;;14.70;12.45;;;;;;;31.52;42.99;98979.16;4466596;32;33995;-78
2023/08/28 00:10:09;;;;;;;14.43;10.82;;;;;;;31.59;42.80;98985.03;4468469;32;34722;-78
2023/08/28 00:12:40;;;;;;;13.18;9.73;;;;;;;31.98;41.96;98974.88;4468197;32;33593;-78
2023/08/28 00:15:09;;;;;;;12.43;9.85;;;;;;;32.04;41.73;98970.03;4468336;32;33927;-78
2023/08/28 00:17:36;;;;;;;11.98;9.38;;;;;;;32.64;40.63;98984.50;4468456;32;33967;-78
2023/08/28 00:20:08;;;;;;;12.63;9.38;;;;;;;32.61;40.81;98984.72;4468433;32;32885;-78
2023/08/28 00:22:36;;;;;;;;;;;;;;;32.33;41.35;98980.91;4465822;32;33781;-78
2023/08/28 00:25:03;;;;;;;;;;;;;;;32.77;40.64;98973.94;4468297;32;34302;-78
2023/08/28 00:27:31;;;;;;;;;;;;;;;32.51;41.31;98973.63;4468052;32;34263;-78
2023/08/28 00:30:00;;;;;;;;;;;;;;;32.36;41.76;98970.03;4466360;32;34224;-78
2023/08/28 00:32:27;;;;;;;;;;;;;;;32.71;41.26;98969.78;4465586;32;31722;-78
2023/08/28 00:34:56;;;;;;;;;;;;;;;32.64;41.40;98973.78;4468071;32;34173;-78
2023/08/28 00:37:23;;;;;;;;;;;;;;;32.45;41.86;98966.81;4466243;32;34286;-78
2023/08/28 00:39:51;;;;;;;;;;;;;;;32.12;42.24;98956.22;4465095;32;34118;-78
2023/08/28 00:42:21;;;;;;;;;;;;;;;32.37;42.02;98949.44;4468572;32;33745;-78
2023/08/28 00:44:48;;;;;;;;;;;;;;;32.47;41.76;98955.97;4465473;32;34683;-78
2023/08/28 00:47:16;;;;;;;;;;;;;;;32.41;41.90;98959.03;4467531;32;33713;-78
2023/08/28 00:49:43;;;;;;;;;;;;;;;32.20;42.44;98962.00;4460351;32;35037;-78
2023/08/28 00:52:11;;;;;;;;;;;;;;;32.22;42.38;98957.44;4465084;32;33201;-78
2023/08/28 00:54:41;;;;;;;;;;;;;;;32.53;41.82;98956.50;4465051;32;34891;-79
2023/08/28 00:57:09;;;;;;;;;;;;;;;32.21;42.42;98962.88;4460529;32;34027;-78
2023/08/28 00:59:37;;;;;;;;;;;;;;;32.32;42.32;98963.13;4467053;32;34192;-78
2023/08/28 01:02:04;;;;;;;;;;;;;;;32.27;42.41;98959.84;4442059;32;33436;-78
2023/08/28 01:04:31;;;;;;;;;;;;;;;31.89;43.33;98960.16;4468189;32;34075;-78
2023/08/28 01:07:28;;;;;;;;;;;;;;;32.11;42.67;98957.19;4465057;32;34683;-78
2023/08/28 01:10:21;;;;;;;;;;;;;;;32.05;42.86;98960.22;4451890;32;34657;-78
2023/08/28 01:12:49;;;;;;;;;;;;;;;32.33;42.21;98952.28;4464142;32;33537;-78
2023/08/28 01:15:20;;;;;;;;;;;;;;;32.17;42.44;98948.78;4467044;32;34319;-78
2023/08/28 01:17:54;;;;;;;;;;;;;;;32.44;41.76;98943.63;4467607;32;34938;-78
2023/08/28 01:20:23;;;;;;;;;;;;;;;31.64;43.67;98941.94;4456629;32;34445;-78
2023/08/28 01:22:50;;;;;;;;;;;;;;;32.32;42.22;98941.69;4465354;32;34238;-78
2023/08/28 01:25:17;;;;;;;;;;;;;;;32.24;42.29;98939.44;4465345;32;34158;-78
2023/08/28 01:27:46;;;;;;;;;;;;;;;31.91;42.98;98944.88;4468432;32;34060;-78
2023/08/28 01:30:14;;;;;;;;;;;;;;;32.28;42.21;98941.00;4459012;32;35096;-78
2023/08/28 01:32:42;;;;;;;;;;;;;;;32.05;42.76;98942.31;4468217;32;33303;-78
2023/08/28 01:35:11;;;;;;;;;;;;;;;32.02;42.82;98938.94;4467542;32;34649;-78
2023/08/28 01:37:40;;;;;;;;;;;;;;;32.20;42.50;98937.91;4456950;32;35034;-78
2023/08/28 01:40:09;;;;;;;;;;;;;;;32.42;41.85;98937.50;4458215;32;34263;-78
2023/08/28 01:42:37;;;;;;;;;;;;;;;32.16;42.37;98933.66;4463611;32;33665;-78
2023/08/28 01:45:05;;;;;;;;;;;;;;;32.01;42.72;98931.81;4466412;32;33674;-78
2023/08/28 01:47:32;;;;;;;;;;;;;;;32.04;42.78;98942.41;4468355;32;34824;-78
2023/08/28 01:50:00;;;;;;;;;;;;;;;32.31;41.95;98945.28;4462131;32;33908;-78
2023/08/28 01:52:27;;;;;;;;;;;;;;;31.75;42.63;98942.19;4467929;32;33347;-78
2023/08/28 01:54:54;;;;;;;;;;;;;;;32.24;41.35;98943.91;4462068;32;33935;-78
2023/08/28 01:57:22;;;;;;;;;;;;;;;32.04;41.72;98947.75;4467921;32;33930;-78
2023/08/28 01:59:49;;;;;;;;;;;;;;;32.26;41.14;98942.91;4435603;32;1043655;-78
2023/08/28 02:02:16;;;;;;;;;;;;;;;32.26;41.00;98948.25;4468038;32;34304;-78
2023/08/28 02:04:44;;;;;;;;;;;;;;;32.60;40.16;98940.91;4467702;32;33831;-78
2023/08/28 02:07:11;;;;;;;;;;;;;;;31.87;41.72;98941.53;4467755;32;34141;-78
2023/08/28 02:09:38;;;;;;;;;;;;;;;31.76;41.95;98943.94;4465283;32;34862;-78
2023/08/28 02:12:06;;;;;;;;;;;;;;;31.89;42.06;98944.97;4464287;32;33724;-78
2023/08/28 02:14:33;;;;;;;;;;;;;;;32.02;42.00;98950.50;4457748;32;34241;-78
2023/08/28 02:17:01;;;;;;;;;;;;;;;32.05;42.03;98954.84;4465301;32;32406;-78
2023/08/28 02:19:29;;;;;;;;;;;;;;;31.63;43.02;98942.91;4467690;32;33859;-78
2023/08/28 02:21:56;;;;;;;;;;;;;;;31.78;42.81;98947.41;4467467;32;33715;-78
2023/08/28 02:24:24;;;;;;;;;;;;;;;31.74;43.02;98951.19;4464382;32;34988;-78
2023/08/28 02:26:52;;;;;;;6.07;3.80;;;;;;;31.02;44.45;98947.91;4466262;32;33922;-79
2023/08/28 02:29:19;;;;;;;;;;;;;;;31.66;42.96;98953.41;4466846;32;34065;-78
2023/08/28 02:31:47;;;;;;;;;;;;;;;31.96;42.21;98949.97;4465013;32;33650;-78
2023/08/28 02:34:14;;;;;;;7.15;4.57;;;;;;;31.92;42.34;98955.50;4466293;32;34786;-78
2023/08/28 02:36:41;;;;;;;6.57;4.43;;;;;;;31.57;42.98;98954.81;4465308;32;34781;-78
2023/08/28 02:39:09;;;;;;;6.05;3.72;;;;;;;31.63;42.66;98964.31;4470857;32;33831;-78
2023/08/28 02:41:37;;;;;;;8.77;4.00;;;;;;;31.43;43.06;98955.53;4467308;32;33633;-78
2023/08/28 02:44:04;;;;;;;;;;;;;;;31.31;43.31;98956.19;4459991;32;33149;-78
2023/08/28 02:46:32;;;;;;;;;;;;;;;31.80;42.34;98950.84;4467328;32;34176;-78
2023/08/28 02:48:59;;;;;;;6.57;4.62;;;;;;;31.53;42.62;98948.75;4467112;32;33759;-78
2023/08/28 02:51:27;;;;;;;6.87;4.35;;;;;;;31.27;43.13;98949.28;4468118;32;33534;-79
2023/08/28 02:53:54;;;;;;;6.25;3.80;;;;;;;30.53;44.98;98945.09;4468280;32;33529;-78
2023/08/28 02:56:23;;;;;;;;;;;;;;;31.15;43.54;98937.41;4470013;32;34537;-78
2023/08/28 02:58:51;;;;;;;;;;;;;;;31.10;43.51;98940.34;4469955;32;34237;-78
2023/08/28 03:01:19;;;;;;;;;;;;;;;30.73;44.49;98944.94;4469249;32;33029;-78
2023/08/28 03:03:49;;;;;;;;;;;;;;;31.33;43.07;98947.16;4469767;32;33846;-78
2023/08/28 03:06:17;;;;;;;6.60;4.53;;;;;;;31.14;43.34;98935.72;4469713;32;34190;-78
2023/08/28 03:08:44;;;;;;;7.55;4.28;;;;;;;30.93;43.90;98943.06;4469168;32;33921;-78
2023/08/28 03:11:12;;;;;;;;;;;;;;;31.07;43.52;98945.00;4469066;32;34324;-78
2023/08/28 03:13:39;;;;;;;;;;;;;;;31.58;42.46;98947.63;4469517;32;35657;-78
2023/08/28 03:16:06;;;;;;;;;;;;;;;31.70;42.20;98949.66;4472028;32;34394;-78
2023/08/28 03:18:34;;;;;;;;;;;;;;;31.18;43.04;98956.00;4468867;32;34044;-79
2023/08/28 03:21:02;;;;;;;;;;;;;;;31.58;42.40;98967.22;4469355;32;34273;-78
2023/08/28 03:23:29;;;;;;;;;;;;;;;31.64;42.23;98966.91;4468906;32;34025;-78
2023/08/28 03:25:57;;;;;;;;;;;;;;;31.39;42.81;98964.69;4467986;32;32475;-78
2023/08/28 03:28:24;;;;;;;;;;;;;;;31.29;43.08;98960.75;4462112;32;34429;-78
2023/08/28 03:30:55;;;;;;;;;;;;;;;31.30;42.85;98958.00;4469139;32;33617;-78
2023/08/28 03:33:22;;;;;;;;;;;;;;;31.13;43.34;98956.22;4469516;32;36533;-78
2023/08/28 03:35:49;;;;;;;;;;;;;;;30.82;43.95;98956.09;4468943;32;34551;-78
2023/08/28 03:38:17;;;;;;;;;;;;;;;31.06;43.52;98954.84;4468735;32;34160;-78
2023/08/28 03:40:45;;;;;;;6.50;4.07;;;;;;;31.07;43.49;98967.25;4465986;32;32823;-78
2023/08/28 03:43:12;;;;;;;;;;;;;;;30.57;44.32;98958.19;4464964;32;33509;-78
2023/08/28 03:45:41;;;;;;;;;;;;;;;30.93;43.63;98975.16;4468659;32;34198;-78
2023/08/28 03:48:08;;;;;;;;;;;;;;;30.65;44.22;98981.88;4468160;32;34357;-78
2023/08/28 03:50:35;;;;;;;;;;;;;;;30.57;44.40;98986.75;4469375;32;34264;-78
2023/08/28 03:53:03;;;;;;;;;;;;;;;30.52;44.47;98988.78;4469123;32;33885;-78
2023/08/28 03:55:31;;;;;;;;;;;;;;;29.70;46.35;98978.44;4469522;32;34981;-78
2023/08/28 03:57:59;;;;;;;;;;;;;;;30.68;44.29;98979.06;4467470;32;33855;-78
2023/08/28 04:00:27;;;;;;;;;;;;;;;30.42;44.75;98984.84;4468070;32;34374;-79
2023/08/28 04:02:55;;;;;;;;;;;;;;;30.59;44.53;98982.19;4468811;32;33983;-78
2023/08/28 04:05:22;;;;;;;;;;;;;;;30.07;45.75;98977.56;4467690;32;33665;-78
2023/08/28 04:07:50;;;;;;;;;;;;;;;30.58;44.50;98977.78;4468892;32;34551;-78
2023/08/28 04:10:17;;;;;;;;;;;;;;;30.74;43.90;98978.72;4469472;32;33341;-79
2023/08/28 04:12:45;;;;;;;;;;;;;;;30.01;45.56;98985.03;4468813;32;34200;-78
2023/08/28 04:15:12;;;;;;;;;;;;;;;30.31;45.12;98980.91;4468975;32;34140;-78
2023/08/28 04:17:40;;;;;;;;;;;;;;;30.49;44.65;98983.59;4467842;32;34092;-78
2023/08/28 04:20:12;;;;;;;;;;;;;;;30.42;44.68;98990.19;4466234;32;33730;-78
2023/08/28 04:22:46;;;;;;;;;;;;;;;30.45;44.40;98992.72;4466062;32;34375;-78
2023/08/28 04:25:13;;;;;;;;;;;;;;;30.31;44.88;98988.91;4457928;32;34937;-79
2023/08/28 04:27:41;;;;;;;;;;;;;;;30.28;44.97;98983.69;4468830;32;34640;-78
2023/08/28 04:30:09;;;;;;;;;;;;;;;30.20;45.11;98985.88;4468879;32;34704;-78
2023/08/28 04:32:36;;;;;;;;;;;;;;;30.62;44.29;98975.81;4461853;32;34662;-78
2023/08/28 04:35:05;;;;;;;;;;;;;;;30.74;43.86;98976.06;4466341;32;33472;-78
2023/08/28 04:37:33;;;;;;;;;;;;;;;30.29;44.72;98977.41;4466742;32;34841;-78
2023/08/28 04:40:00;;;;;;;;;;;;;;;30.17;44.97;98975.31;4468887;32;34002;-78
2023/08/28 04:42:29;;;;;;;;;;;;;;;30.69;44.10;98963.87;4469192;32;33678;-79
2023/08/28 04:44:57;;;;;;;;;;;;;;;30.80;43.78;98957.97;4462436;32;34003;-78
2023/08/28 04:47:24;;;;;;;;;;;;;;;30.63;43.89;98959.69;4469024;32;35162;-79
2023/08/28 04:49:53;;;;;;;;;;;;;;;30.59;44.16;98960.81;4469193;32;34195;-79
2023/08/28 04:52:22;;;;;;;;;;;;;;;30.53;44.02;98953.09;4463548;32;33321;-78
2023/08/28 04:54:49;;;;;;;6.07;3.00;;;;;;;30.12;45.26;98956.00;4460630;32;35535;-78
2023/08/28 04:57:17;;;;;;;5.80;3.85;;;;;;;30.41;44.39;98945.72;4468706;32;34082;-79
2023/08/28 04:59:44;;;;;;;;;;;;;;;30.29;44.61;98948.03;4468674;32;33349;-78
2023/08/28 05:02:12;;;;;;;;;;;;;;;30.07;45.34;98942.00;4467706;32;32949;-78
2023/08/28 05:04:39;;;;;;;;;;;;;;;29.27;47.42;98945.75;4468310;32;32927;-77
2023/08/28 05:07:07;;;;;;;;;;;;;;;29.65;46.77;98941.31;4468735;32;34363;-78
2023/08/28 05:09:34;;;;;;;;;;;;;;;29.82;46.39;98932.50;4467559;32;33944;-77
2023/08/28 05:12:03;;;;;;;7.85;3.65;;;;;;;30.07;45.97;98925.97;4462053;32;34874;-77
2023/08/28 05:14:31;;;;;;;7.25;3.47;;;;;;;29.94;46.35;98915.91;4468367;32;34654;-78
2023/08/28 05:16:59;;;;;;;6.05;3.37;;;;;;;30.26;45.45;98921.44;4467309;32;33806;-77
2023/08/28 05:19:27;;;;;;;7.47;3.90;;;;;;;30.46;44.71;98922.28;4465228;32;33329;-81
2023/08/28 05:21:54;;;;;;;6.47;4.12;;;;;;;30.22;45.39;98930.56;4464953;32;32198;-80
2023/08/28 05:24:21;;;;;;;6.18;3.70;;;;;;;30.10;45.58;98936.53;4461639;32;34611;-77
2023/08/28 05:26:49;;;;;;;6.40;4.37;;;;;;;29.94;46.25;98937.28;4467023;32;33583;-76
2023/08/28 05:29:17;;;;;;;7.23;4.40;;;;;;;29.48;47.31;98939.41;4455479;32;34131;-78
2023/08/28 05:31:45;;;;;;;6.00;4.18;;;;;;;29.73;47.25;98933.81;4465007;32;33968;-80
2023/08/28 05:34:15;;;;;;;6.75;4.00;;;;;;;30.05;46.42;98943.88;4466393;32;34354;-77
2023/08/28 05:36:42;;;;;;;6.32;4.22;;;;;;;29.67;47.46;98938.53;4464142;32;34437;-78
2023/08/28 05:39:10;;;;;;;6.05;3.72;;;;;;;29.62;47.65;98935.25;4456308;32;32975;-78
2023/08/28 05:41:38;;;;;;;5.37;3.10;;;;;;;29.53;47.96;98937.38;4465333;32;33633;-79
2023/08/28 05:44:05;;;;;;;;;;;;;;;30.28;46.18;98946.28;4461707;32;33442;-78
2023/08/28 05:46:32;;;;;;;6.25;3.05;;;;;;;30.94;44.99;98934.06;4466984;32;34328;-79
2023/08/28 05:49:00;;;;;;;5.68;3.60;;;;;;;31.06;44.52;98917.41;4466604;32;33539;-77
2023/08/28 05:51:28;;;;;;;5.90;3.20;;;;;;;30.62;45.33;98914.31;4467407;32;33521;-78
2023/08/28 05:53:55;;;;;;;6.80;3.97;;;;;;;30.68;45.32;98914.03;4467700;32;33872;-77
2023/08/28 05:56:24;;;;;;;;;;;;;;;31.19;44.26;98911.37;4467040;32;34064;-77
2023/08/28 05:58:51;;;;;;;8.55;3.95;;;;;;;31.15;44.42;98914.19;4467497;32;34308;-80
2023/08/28 06:01:19;;;;;;;8.68;3.70;;;;;;;31.20;44.37;98919.31;4467347;32;33906;-79
2023/08/28 06:03:47;;;;;;;;;;;;;;;31.17;44.32;98912.31;4447259;32;32211;-76
2023/08/28 06:06:14;;;;;;;;;;;;;;;31.57;43.36;98919.16;4461687;32;34435;-77
2023/08/28 06:08:41;;;;;;;4.97;3.40;;;;;;;31.73;43.21;98912.81;4467742;32;34160;-78
2023/08/28 06:11:09;;;;;;;8.77;3.92;;;;;;;31.95;42.75;98900.91;4467886;32;33516;-77
2023/08/28 06:13:37;;;;;;;6.97;4.35;;;;;;;31.50;43.75;98906.09;4467440;32;34045;-78
2023/08/28 06:16:04;;;;;;;10.15;4.30;;;;;;;31.68;43.43;98903.31;4466929;32;33834;-77
2023/08/28 06:18:34;;;;;;;6.57;4.00;;;;;;;31.53;43.79;98905.94;4459918;32;34373;-78
2023/08/28 06:21:02;;;;;;;8.52;4.40;;;;;;;31.97;42.77;98903.47;4465375;32;33953;-78
2023/08/28 06:23:29;;;;;;;;;;;;;;;31.34;44.26;98906.03;4467565;32;33749;-78
2023/08/28 06:25:57;;;;;;;;;;;;;;;31.93;42.83;98903.69;4467719;32;34511;-76
2023/08/28 06:28:24;;;;;;;;;;;;;;;32.09;42.35;98910.87;4469217;32;32992;-76
2023/08/28 06:30:52;;;;;;;;;;;;;;;32.45;41.83;98909.63;4469797;32;34065;-78
2023/08/28 06:33:21;;;;;;;7.40;4.18;;;;;;;32.10;42.88;98915.25;4469719;32;35020;-77
2023/08/28 06:35:49;;;;;;;8.63;4.05;;;;;;;31.96;43.10;98907.12;4468171;32;33781;-78
2023/08/28 06:38:17;;;;;;;8.68;3.72;;;;;;;32.08;42.87;98911.81;4469731;32;34341;-76
2023/08/28 06:40:51;;;;;;;6.22;4.03;;;;;;;32.02;43.28;98907.66;4469848;32;33171;-76
2023/08/28 06:43:19;;;;;;;7.50;4.15;;;;;;;32.10;42.92;98901.84;4466959;32;33541;-78
2023/08/28 06:45:47;;;;;;;5.97;3.97;;;;;;;32.50;41.95;98891.47;4468319;32;34203;-77
2023/08/28 06:48:14;;;;;;;5.50;3.67;;;;;;;32.06;42.83;98890.44;4467665;32;32384;-78
2023/08/28 06:50:42;;;;;;;8.60;3.92;;;;;;;32.00;43.12;98882.75;4465311;32;32778;-78
2023/08/28 06:53:09;;;;;;;7.10;4.70;;;;;;;32.37;42.45;98885.12;4461547;32;34090;-77
2023/08/28 06:55:37;;;;;;;9.13;4.55;;;;;;;32.37;42.55;98874.41;4467280;32;34821;-77
2023/08/28 06:58:05;;;;;;;7.85;4.00;;;;;;;32.33;42.59;98869.19;4468732;32;34219;-77
2023/08/28 07:00:32;;;;;;;6.18;4.18;;;;;;;32.07;43.27;98868.09;4469204;32;34076;-77
2023/08/28 07:03:00;;;;;;;7.28;5.40;;;;;;;32.17;43.23;98857.69;4468629;32;33788;-78
2023/08/28 07:05:28;;;;;;;8.00;5.12;;;;;;;32.08;43.00;98852.88;4465384;32;34743;-78
2023/08/28 07:07:56;;;;;;;8.57;5.78;;;;;;;32.64;42.07;98845.94;4465780;32;34207;-78
2023/08/28 07:10:23;;;;;;;10.88;6.12;;;;;;;32.48;42.66;98843.31;4468186;32;34711;-78
2023/08/28 07:12:51;;;;;;;8.98;5.35;;;;;;;32.46;42.11;98836.31;4466918;32;33758;-78
2023/08/28 07:15:19;;;;;;;9.18;5.95;;;;;;;32.54;42.44;98834.03;4461367;32;33327;-78
2023/08/28 07:17:46;;;;;;;12.00;6.78;;;;;;;32.88;42.19;98837.34;4467250;32;33610;-78
2023/08/28 07:20:14;;;;;;;10.02;6.43;;;;;;;33.16;40.97;98835.63;4463258;32;34878;-78
2023/08/28 07:22:42;;;;;;;11.95;6.87;;;;;;;33.31;40.66;98831.97;4465221;32;33615;-77
2023/08/28 07:25:10;;;;;;;10.70;6.95;;;;;;;33.60;40.20;98834.59;4466368;32;33887;-78
2023/08/28 07:27:37;;;;;;;13.62;7.50;;;;;;;33.33;40.59;98842.63;4467799;32;33388;-77
2023/08/28 07:30:06;;;;;;;10.82;7.30;;;;;;;33.68;39.50;98843.88;4461200;32;34761;-78
2023/08/28 07:32:33;;;;;;;11.50;7.37;;;;;;;33.63;39.58;98839.75;4469132;32;33708;-77
2023/08/28 07:35:01;;;;;;;9.20;6.80;;;;;;;33.34;40.37;98847.88;4468446;32;34147;-76
2023/08/28 07:37:29;;;;;;;11.52;7.70;;;;;;;33.80;39.43;98847.56;4467562;32;33326;-76
2023/08/28 07:39:57;;;;;;;12.65;7.65;;;;;;;34.00;39.01;98854.31;4469330;32;33712;-77
2023/08/28 07:42:24;;;;;;;11.12;6.82;;;;;;;34.00;39.08;98848.09;4468099;32;33541;-77
2023/08/28 07:44:52;;;;;;;10.63;6.90;;;;;;;33.76;39.86;98861.31;4469442;32;34084;-76
2023/08/28 07:47:20;;;;;;;10.93;6.70;;;;;;;33.88;39.91;98866.75;4469307;32;33613;-77
2023/08/28 07:49:48;;;;;;;12.48;7.15;;;;;;;34.20;38.99;98866.44;4468353;32;33777;-76
2023/08/28 07:52:16;;;;;;;11.10;6.97;;;;;;;33.94;39.38;98864.59;4469025;32;33929;-77
2023/08/28 07:54:43;;;;;;;10.57;6.30;;;;;;;34.32;38.41;98855.81;4469028;32;34829;-76
2023/08/28 07:57:11;;;;;;;11.77;6.93;;;;;;;34.07;38.80;98860.13;4468002;32;34309;-77
2023/08/28 07:59:39;;;;;;;12.52;7.35;;;;;;;34.66;37.78;98857.94;4459403;32;33701;-76
2023/08/28 08:02:07;;;;;;;10.93;7.43;;;;;;;34.78;37.69;98858.03;4467900;32;33599;-76
2023/08/28 08:04:35;;;;;;;8.80;7.05;;;;;;;34.75;38.08;98858.25;4467693;32;34210;-77
2023/08/28 08:07:03;;;;;;;12.30;7.05;;;;;;;34.76;37.95;98851.91;4468260;32;33778;-76
2023/08/28 08:09:30;;;;;;;12.90;7.97;;;;;;;34.61;38.11;98851.97;4460473;32;33392;-77
2023/08/28 08:11:58;;;;;;;13.93;7.00;;;;;;;34.44;38.51;98857.66;4462137;32;33987;-76
2023/08/28 08:14:26;;;;;;;10.63;6.87;;;;;;;34.61;38.39;98843.91;4462645;32;34078;-77
2023/08/28 08:16:53;;;;;;;10.82;7.72;;;;;;;34.95;38.24;98838.88;4468030;32;33684;-77
2023/08/28 08:19:21;;;;;;;12.27;7.15;;;;;;;34.68;38.74;98839.00;4461506;32;33899;-77
2023/08/28 08:21:48;;;;;;;11.27;7.30;;;;;;;35.28;37.28;98832.06;4466977;32;33533;-77
2023/08/28 08:24:17;;;;;;;10.00;7.22;;;;;;;35.27;37.39;98824.94;4468632;32;33583;-77
2023/08/28 08:26:44;;;;;;;13.82;7.90;;;;;;;35.10;37.50;98823.47;4462994;32;33213;-77
2023/08/28 08:29:12;;;;;;;13.70;8.27;;;;;;;35.13;37.21;98811.59;4466997;32;34017;-77
2023/08/28 08:31:39;;;;;;;12.43;7.62;;;;;;;35.43;36.66;98814.78;4467737;32;33126;-77
2023/08/28 08:34:07;;;;;;;11.15;8.05;;;;;;;35.51;36.84;98805.28;4463493;32;34781;-77
2023/08/28 08:36:35;;;;;;;12.02;7.00;;;;;;;35.73;36.60;98808.09;4467766;32;33407;-80
2023/08/28 08:39:03;;;;;;;12.98;7.93;;;;;;;35.53;37.38;98808.72;4467530;32;34406;-77
2023/08/28 08:41:31;;;;;;;13.18;8.10;;;;;;;35.85;37.22;98808.16;4465249;32;34453;-77
2023/08/28 08:43:58;;;;;;;13.25;8.43;;;;;;;36.39;36.01;98802.22;4467025;32;34482;-77
2023/08/28 08:46:26;;;;;;;13.95;8.13;;;;;;;36.42;35.37;98796.59;4463714;32;34065;-77
2023/08/28 08:48:56;;;;;;;12.35;8.00;;;;;;;36.41;35.46;98811.06;4465411;32;33267;-76
2023/08/28 08:51:25;;;;;;;13.98;7.18;;;;;;;36.72;35.03;98811.37;4463203;32;33978;-77
2023/08/28 08:54:34;;;;;;;14.15;8.30;;;;;;;37.23;34.16;98812.75;4467364;32;34026;-78
2023/08/28 08:57:06;;;;;;;11.52;7.80;;;;;;;37.09;34.42;98812.00;4466657;32;33720;-78
2023/08/28 08:59:34;;;;;;;12.77;8.00;;;;;;;37.28;34.41;98816.78;4465616;32;33910;-78
2023/08/28 09:02:03;;;;;;;11.85;7.65;;;;;;;37.64;33.14;98816.62;4465106;32;33565;-77
2023/08/28 09:04:32;;;;;;;13.55;7.87;;;;;;;37.45;33.87;98811.84;4468114;32;33774;-78
2023/08/28 09:07:02;;;;;;;13.55;8.25;;;;;;;37.04;34.48;98811.50;4465941;32;34155;-77
2023/08/28 09:09:31;;;;;;;11.20;7.57;;;;;;;37.47;33.75;98815.25;4457151;32;32758;-78
2023/08/28 09:12:00;;;;;;;11.60;7.97;;;;;;;37.70;33.47;98816.94;4458241;32;34291;-77
2023/08/28 09:14:28;;;;;;;13.10;7.75;;;;;;;37.92;32.80;98816.00;4465753;32;34222;-78
2023/08/28 09:16:56;;;;;;;13.88;8.45;;;;;;;37.82;33.18;98817.75;4460173;32;33771;-78
2023/08/28 09:19:24;;;;;;;16.98;9.90;;;;;;;37.89;32.85;98812.72;4467168;32;33895;-77
2023/08/28 09:21:52;;;;;;;11.68;8.00;;;;;;;38.06;32.32;98805.88;4467595;32;33575;-77
2023/08/28 09:24:23;;;;;;;10.18;8.35;;;;;;;37.50;33.33;98809.63;4465418;32;34654;-78
2023/08/28 09:26:52;;;;;;;13.88;7.97;;;;;;;37.95;32.68;98798.66;4461331;32;34139;-78
2023/08/28 09:29:22;;;;;;;12.35;8.63;;;;;;;38.22;32.35;98795.47;4464676;32;34316;-78
2023/08/28 09:31:51;;;;;;;12.43;8.05;;;;;;;38.38;32.20;98795.00;4467787;32;33872;-77
2023/08/28 09:34:20;;;;;;;12.82;7.53;;;;;;;38.54;31.68;98779.19;4463470;32;34038;-78
2023/08/28 09:36:48;;;;;;;12.93;7.87;;;;;;;38.39;31.89;98780.50;4467624;32;34378;-78
2023/08/28 09:39:15;;;;;;;13.00;9.02;;;;;;;38.87;31.48;98768.25;4448835;32;33080;-77
2023/08/28 09:41:46;;;;;;;12.65;9.02;;;;;;;38.81;31.04;98763.34;4459472;32;34600;-78
2023/08/28 09:44:14;;;;;;;11.00;8.05;;;;;;;39.13;31.28;98763.19;4467382;32;33810;-78
2023/08/28 09:46:43;;;;;;;14.85;8.45;;;;;;;39.23;31.15;98766.78;4467707;32;33509;-78
2023/08/28 09:49:13;;;;;;;13.07;8.18;;;;;;;39.40;30.80;98769.81;4466297;32;33781;-77
2023/08/28 09:51:45;;;;;;;17.02;9.80;;;;;;;39.55;30.21;98762.16;4461764;32;34428;-78
2023/08/28 09:54:14;;;;;;;10.93;9.02;;;;;;;39.10;30.14;98758.94;4463423;32;34144;-77
2023/08/28 09:56:43;;;;;;;12.90;9.00;;;;;;;39.82;30.04;98758.75;4468243;32;33764;-77
2023/08/28 09:59:11;;;;;;;13.15;9.30;;;;;;;39.72;30.30;98748.75;4465073;32;33967;-77
2023/08/28 10:01:40;;;;;;;11.90;8.13;;;;;;;39.95;29.27;98745.78;4453564;32;33653;-77
2023/08/28 10:04:09;;;;;;;12.55;8.05;;;;;;;40.34;29.57;98743.00;4467408;32;34866;-77
2023/08/28 10:06:41;;;;;;;12.35;7.80;;;;;;;39.97;28.81;98735.66;4464990;32;34198;-76
2023/08/28 10:09:18;;;;;;;12.35;8.05;;;;;;;40.12;28.63;98727.87;4467012;32;34227;-76
2023/08/28 10:11:46;;;;;;;13.95;7.85;;;;;;;40.38;28.82;98722.72;4466150;32;34057;-77
2023/08/28 10:14:14;;;;;;;13.70;7.10;;;;;;;40.68;28.03;98718.88;4463375;32;34209;-77
2023/08/28 10:16:57;;;;;;;9.27;6.57;;;;;;;40.65;27.22;98724.59;4461433;32;33785;-77
2023/08/28 10:19:42;;;;;;;11.23;7.00;;;;;;;40.90;27.41;98719.53;4465345;32;34690;-77
2023/08/28 10:22:10;;;;;;;12.27;6.97;;;;;;;40.93;27.09;98718.34;4458437;32;33940;-77
2023/08/28 10:24:42;;;;;;;11.75;6.62;;;;;;;40.80;26.95;98716.84;4467104;32;33396;-77
2023/08/28 10:27:11;;;;;;;11.32;7.12;;;;;;;41.28;26.64;98714.00;4466064;32;34317;-77
2023/08/28 10:29:39;;;;;;;12.63;7.03;;;;;;;41.60;25.91;98708.03;4464198;32;33655;-77
2023/08/28 10:32:09;;;;;;;11.60;6.65;;;;;;;41.50;26.29;98708.13;4467956;32;33944;-77
2023/08/28 10:34:42;;;;;;;10.05;7.00;;;;;;;41.50;26.53;98708.13;4465949;32;36774;-76
2023/08/28 10:37:11;;;;;;;10.65;7.03;;;;;;;41.71;26.24;98693.38;4467783;32;33298;-77
2023/08/28 10:39:58;;;;;;;11.57;6.87;;;;;;;42.06;25.80;98697.91;4466659;32;34550;-77
2023/08/28 10:42:27;;;;;;;11.70;6.68;;;;;;;42.17;25.55;98694.06;4467245;32;34158;-76
2023/08/28 10:44:55;;;;;;;13.62;6.93;;;;;;;42.34;25.46;98693.13;4465516;32;33687;-76
2023/08/28 10:47:26;;;;;;;10.52;6.30;;;;;;;42.29;25.32;98687.34;4467904;32;33484;-76
2023/08/28 10:49:56;;;;;;;11.43;6.60;;;;;;;42.29;24.67;98684.63;4467039;32;34707;-76
2023/08/28 10:52:24;;;;;;;11.38;6.45;;;;;;;42.26;24.72;98692.25;4467333;32;33116;-76
2023/08/28 10:54:54;;;;;;;10.20;6.82;;;;;;;42.14;25.10;98689.78;4467364;32;34393;-76
2023/08/28 10:57:28;;;;;;;9.85;6.22;;;;;;;42.90;24.69;98690.87;4466532;32;36214;-76
2023/08/28 11:00:02;;;;;;;11.38;6.55;;;;;;;42.67;24.97;98685.13;4466792;32;35135;-76
2023/08/28 11:03:08;;;;;;;9.80;6.70;;;;;;;42.54;25.70;98676.59;4467462;32;33431;-76
2023/08/28 11:05:39;;;;;;;11.80;6.30;;;;;;;42.16;25.03;98681.47;4467042;32;34831;-76
2023/08/28 11:08:09;;;;;;;10.27;7.15;;;;;;;41.85;25.05;98668.31;4455208;32;33590;-76
2023/08/28 11:10:39;;;;;;;11.65;6.93;;;;;;;41.43;26.12;98674.41;4466788;32;33945;-76
2023/08/28 11:13:08;;;;;;;13.90;6.70;;;;;;;41.79;25.78;98672.53;4469466;32;33606;-76
2023/08/28 11:15:41;;;;;;;11.40;6.12;;;;;;;42.66;24.55;98661.69;4468588;32;34486;-76
2023/08/28 11:18:41;;;;;;;8.65;6.60;;;;;;;42.64;24.35;98669.16;4465907;32;34195;-76
2023/08/28 11:21:09;;;;;;;10.73;6.55;;;;;;;43.05;23.41;98660.28;4437430;32;34525;-76
2023/08/28 11:23:39;;;;;;;9.68;6.25;;;;;;;42.91;23.84;98653.63;4468906;32;34549;-76
2023/08/28 11:26:26;;;;;;;9.07;5.85;;;;;;;43.07;22.58;98659.06;4460417;32;34259;-76
2023/08/28 11:28:54;;;;;;;11.10;6.55;;;;;;;42.92;23.69;98649.84;4469420;32;33577;-76
2023/08/28 11:31:33;;;;;;;10.27;6.10;;;;;;;43.48;23.49;98656.41;4468890;32;34613;-76
2023/08/28 11:34:01;;;;;;;8.18;5.70;;;;;;;43.29;23.33;98654.91;4468276;32;33766;-76
2023/08/28 11:36:37;;;;;;;9.45;5.82;;;;;;;43.46;22.62;98657.63;4468195;32;32578;-76
2023/08/28 11:39:05;;;;;;;11.00;6.50;;;;;;;43.77;22.83;98645.03;4469435;32;33394;-76
2023/08/28 11:41:33;;;;;;;9.57;5.85;;;;;;;43.44;23.24;98649.59;4467849;32;32539;-76
2023/08/28 11:44:01;;;;;;;11.00;6.70;;;;;;;43.22;23.05;98639.34;4468905;32;33865;-76
2023/08/28 11:46:28;;;;;;;10.05;6.37;;;;;;;42.90;23.61;98641.00;4468999;32;33932;-76
2023/08/28 11:48:56;;;;;;;11.80;6.47;;;;;;;43.45;22.99;98634.13;4468757;32;33772;-76
2023/08/28 11:51:24;;;;;;;8.90;6.10;;;;;;;43.14;23.20;98629.31;4469096;32;33829;-76
2023/08/28 11:53:52;;;;;;;12.85;6.55;;;;;;;43.88;22.53;98641.06;4468670;32;34607;-76
2023/08/28 11:56:20;;;;;;;8.70;6.18;;;;;;;43.81;22.84;98640.06;4467885;32;34047;-76
2023/08/28 11:58:47;;;;;;;9.85;6.07;;;;;;;43.65;21.69;98634.59;4469251;32;33414;-76
2023/08/28 12:01:15;;;;;;;9.30;5.90;;;;;;;43.94;21.94;98640.38;4468023;32;34199;-76
2023/08/28 12:03:44;;;;;;;8.30;6.35;;;;;;;44.12;22.54;98637.47;4469158;32;33786;-76